Time;durP1;ratioP1;P1;durP2;ratioP2;P2;SDS_P1;SDS_P2;PMS_P1;PMS_P2;Temp;Humidity;BMP_temperature;BMP_pressure;BME280_temperature;BME280_humidity;BME280_pressure;Samples;Min_cycle;Max_cycle;Signal;HPM_P1;HPM_P2
2021/12/25 00:02:12;;;;;;;4.97;1.10;;;;;;;;;;4971920;28;20050;-78
2021/12/25 00:04:38;;;;;;;6.10;1.58;;;;;;;;;;5020274;28;20048;-78
2021/12/25 00:07:04;;;;;;;6.25;1.00;;;;;;;;;;5012596;28;20100;-79
2021/12/25 00:09:31;;;;;;;3.17;0.95;;;;;;;;;;5007349;28;20079;-78
2021/12/25 00:11:57;;;;;;;5.80;1.15;;;;;;;;;;5022772;28;20130;-78
2021/12/25 00:14:23;;;;;;;6.30;1.67;;;;;;;;;;5024645;28;20481;-78
2021/12/25 00:16:49;;;;;;;4.75;1.40;;;;;;;;;;5005803;28;20083;-78
2021/12/25 00:19:15;;;;;;;3.17;1.17;;;;;;;;;;5018874;28;20030;-78
2021/12/25 00:21:41;;;;;;;5.85;1.00;;;-0.90;99.90;;;;;;5005876;28;20044;-78
2021/12/25 00:24:07;;;;;;;2.60;1.27;;;-1.00;99.90;;;;;;4991595;28;20046;-78
2021/12/25 00:27:22;;;;;;;3.92;1.17;;;-1.00;99.90;;;;;;5015499;28;20464;-79
2021/12/25 00:29:51;;;;;;;4.22;1.23;;;-1.10;99.90;;;;;;5001523;28;20064;-78
2021/12/25 00:34:49;;;;;;;3.83;1.10;;;-1.20;99.90;;;;;;5033562;28;20037;-78
2021/12/25 00:37:16;;;;;;;11.02;1.75;;;-1.20;99.90;;;;;;5037127;28;20033;-78
2021/12/25 00:39:43;;;;;;;4.43;1.05;;;-1.30;99.90;;;;;;4993817;28;20099;-78
2021/12/25 00:42:10;;;;;;;4.20;1.05;;;-1.30;99.90;;;;;;4990207;28;20053;-78
2021/12/25 00:44:37;;;;;;;5.03;0.90;;;-1.30;99.90;;;;;;5008847;28;20037;-78
2021/12/25 00:47:04;;;;;;;3.88;1.00;;;-1.40;99.90;;;;;;5015723;28;20045;-78
2021/12/25 00:49:32;;;;;;;2.63;0.70;;;-1.40;99.90;;;;;;4991724;28;20533;-78
2021/12/25 00:51:58;;;;;;;4.70;0.88;;;-1.50;99.90;;;;;;5024575;28;20073;-78
2021/12/25 00:54:24;;;;;;;7.72;1.80;;;-1.50;99.90;;;;;;5000512;28;20132;-78
2021/12/25 00:56:50;;;;;;;8.65;3.15;;;-1.50;99.90;;;;;;5020927;28;20047;-78
2021/12/25 00:59:16;;;;;;;5.05;1.30;;;-0.90;99.90;;;;;;5014558;28;20132;-78
2021/12/25 01:01:42;;;;;;;5.90;1.20;;;-1.60;99.90;;;;;;5022750;28;20124;-78
2021/12/25 01:04:07;;;;;;;5.38;0.95;;;-1.30;99.90;;;;;;5030015;28;20087;-78
2021/12/25 01:06:33;;;;;;;4.63;1.17;;;-1.60;99.90;;;;;;5016803;28;20041;-78
2021/12/25 01:09:00;;;;;;;4.28;0.82;;;;;;;;;;5059729;28;20072;-78
2021/12/25 01:11:29;;;;;;;2.47;0.85;;;-1.70;99.90;;;;;;5028017;28;20041;-78
2021/12/25 01:14:03;;;;;;;6.53;0.90;;;-1.80;99.90;;;;;;5016437;28;20040;-78
2021/12/25 01:27:30;;;;;;;2.53;0.88;;;-1.90;99.90;;;;;;5014110;28;20053;-78
2021/12/25 01:48:26;;;;;;;4.15;0.70;;;-2.10;99.90;;;;;;5044332;28;20056;-78
2021/12/25 01:50:53;;;;;;;5.20;1.05;;;-2.10;99.90;;;;;;5058904;28;20032;-78
2021/12/25 01:53:19;;;;;;;3.80;0.85;;;-2.10;99.90;;;;;;5047720;28;20135;-78
2021/12/25 01:55:45;;;;;;;4.68;0.80;;;-2.20;99.90;;;;;;5017390;28;20057;-79
2021/12/25 01:58:12;;;;;;;4.68;0.82;;;-2.20;99.90;;;;;;5046296;28;20083;-79
2021/12/25 02:00:47;;;;;;;2.80;0.93;;;-2.30;99.90;;;;;;5030016;28;20036;-78
2021/12/25 02:03:16;;;;;;;3.05;0.80;;;-2.20;99.90;;;;;;5054883;28;20077;-78
2021/12/25 02:05:42;;;;;;;3.40;0.65;;;-2.00;99.90;;;;;;5034412;28;20048;-78
2021/12/25 02:08:08;;;;;;;2.25;0.73;;;-2.30;99.90;;;;;;5036433;28;20098;-78
2021/12/25 02:10:34;;;;;;;3.25;1.08;;;-2.50;99.90;;;;;;5041479;28;20043;-78
2021/12/25 02:13:02;;;;;;;3.22;1.02;;;;;;;;;;5042144;28;20404;-78
2021/12/25 02:15:31;;;;;;;2.42;1.00;;;-2.30;99.90;;;;;;5032888;28;20044;-78
2021/12/25 02:18:09;;;;;;;3.22;1.30;;;-2.40;99.90;;;;;;5041320;28;20041;-78
2021/12/25 02:20:46;;;;;;;2.90;0.98;;;-2.00;99.90;;;;;;5068411;28;20072;-78
2021/12/25 02:23:22;;;;;;;2.22;0.88;;;-2.40;99.90;;;;;;5019646;28;20043;-78
2021/12/25 02:25:50;;;;;;;2.90;0.82;;;-2.40;99.90;;;;;;5047204;28;20519;-78
2021/12/25 02:28:17;;;;;;;2.03;0.85;;;-2.50;99.90;;;;;;5025573;28;20049;-78
2021/12/25 02:30:44;;;;;;;1.42;0.68;;;-2.50;99.90;;;;;;5029295;28;20040;-78
2021/12/25 02:33:10;;;;;;;4.10;1.08;;;-2.50;99.90;;;;;;5069093;28;20040;-79
2021/12/25 02:35:36;;;;;;;4.38;1.05;;;-2.50;99.90;;;;;;5049886;28;20075;-78
2021/12/25 02:38:03;;;;;;;3.00;1.30;;;-2.60;99.90;;;;;;5029110;28;20090;-78
2021/12/25 02:40:29;;;;;;;2.38;0.70;;;-2.60;99.90;;;;;;5041818;28;20061;-78
2021/12/25 02:42:55;;;;;;;3.70;0.80;;;-2.00;99.90;;;;;;5031160;28;20554;-79
2021/12/25 02:45:22;;;;;;;5.32;0.95;;;-2.60;99.90;;;;;;5059154;28;20123;-78
2021/12/25 02:47:53;;;;;;;3.42;1.10;;;-2.60;99.90;;;;;;5050058;28;20063;-78
2021/12/25 02:50:30;;;;;;;2.63;0.85;;;-2.60;99.90;;;;;;5032906;28;20119;-78
2021/12/25 02:52:59;;;;;;;3.72;0.70;;;-2.70;99.90;;;;;;5029841;28;20512;-78
2021/12/25 02:55:25;;;;;;;1.27;0.70;;;-2.70;99.90;;;;;;5063869;28;20488;-78
2021/12/25 02:57:52;;;;;;;3.75;1.00;;;-2.70;99.90;;;;;;5080236;28;20047;-78
2021/12/25 03:00:32;;;;;;;1.92;0.70;;;-2.70;99.90;;;;;;5054377;28;20511;-78
2021/12/25 03:03:00;;;;;;;4.07;0.80;;;-0.70;99.90;;;;;;5082147;28;20473;-78
2021/12/25 03:05:26;;;;;;;3.45;1.08;;;-2.80;99.90;;;;;;5045567;28;22239;-79
2021/12/25 03:07:52;;;;;;;2.50;0.60;;;-2.80;99.90;;;;;;5032005;28;20050;-78
2021/12/25 03:10:19;;;;;;;2.25;0.73;;;-2.80;99.90;;;;;;5015012;28;20033;-78
2021/12/25 03:13:16;;;;;;;3.42;0.82;;;-2.60;99.90;;;;;;5030362;28;20505;-78
2021/12/25 03:15:45;;;;;;;1.40;0.52;;;-2.50;99.90;;;;;;5074419;28;20041;-79
2021/12/25 03:18:20;;;;;;;2.03;0.70;;;-2.90;99.90;;;;;;5045871;28;20373;-78
2021/12/25 03:20:48;;;;;;;3.53;0.93;;;-2.90;99.90;;;;;;5034972;28;20071;-78
2021/12/25 03:23:19;;;;;;;1.67;1.58;;;-2.90;99.90;;;;;;5068768;28;20044;-78
2021/12/25 03:25:47;;;;;;;5.07;1.15;;;-3.00;99.90;;;;;;5031307;28;20113;-78
2021/12/25 03:28:14;;;;;;;2.35;0.88;;;-3.00;99.90;;;;;;5082896;28;20114;-78
2021/12/25 03:30:40;;;;;;;2.92;0.80;;;-3.00;99.90;;;;;;5047319;28;20098;-78
2021/12/25 03:33:09;;;;;;;2.33;0.55;;;-3.00;99.90;;;;;;5056465;28;20066;-78
2021/12/25 03:35:35;;;;;;;3.35;0.70;;;-3.00;99.90;;;;;;5036612;28;20043;-78
2021/12/25 03:38:05;;;;;;;3.70;0.82;;;-3.10;99.90;;;;;;5037725;28;20040;-78
2021/12/25 03:40:32;;;;;;;1.73;0.50;;;-3.10;99.90;;;;;;5053438;28;20059;-78
2021/12/25 03:42:58;;;;;;;2.55;0.80;;;-3.10;99.90;;;;;;5051794;28;20061;-77
2021/12/25 03:45:24;;;;;;;0.98;0.75;;;-3.10;99.90;;;;;;5061486;28;20161;-78
2021/12/25 03:47:53;;;;;;;2.60;0.70;;;-3.10;99.90;;;;;;5029468;28;20032;-78
2021/12/25 03:58:37;;;;;;;2.30;0.50;;;-3.20;99.90;;;;;;5087807;28;20044;-78
2021/12/25 04:01:26;;;;;;;0.93;0.60;;;-3.30;99.90;;;;;;5033750;28;20443;-78
2021/12/25 04:06:34;;;;;;;;;;;-2.80;99.90;;;;;;5072690;28;20040;-78
2021/12/25 04:09:03;;;;;;;4.03;1.00;;;-3.30;99.90;;;;;;5049549;28;19924;-78
2021/12/25 04:11:32;;;;;;;2.40;0.77;;;-3.30;99.90;;;;;;5035322;28;20043;-78
2021/12/25 04:13:58;;;;;;;3.03;0.70;;;-3.30;99.90;;;;;;5068446;28;20050;-78
2021/12/25 04:16:26;;;;;;;2.35;0.65;;;-3.30;99.90;;;;;;5050312;28;20040;-78
2021/12/25 04:18:53;;;;;;;2.42;0.82;;;-3.40;99.90;;;;;;5018389;28;20078;-78
2021/12/25 04:21:19;;;;;;;4.07;1.10;;;-5.10;99.90;;;;;;5069021;28;20097;-78
2021/12/25 04:23:46;;;;;;;2.00;0.80;;;-3.40;99.90;;;;;;5068487;28;20534;-78
2021/12/25 04:26:13;;;;;;;1.85;0.80;;;-3.40;99.90;;;;;;5011657;28;20033;-78
2021/12/25 04:28:46;;;;;;;4.53;1.10;;;-3.40;99.90;;;;;;5050151;28;20534;-78
2021/12/25 05:03:59;;;;;;;1.17;0.60;;;-3.20;99.90;;;;;;5044367;28;20044;-78
2021/12/25 05:06:25;;;;;;;2.90;1.45;;;-3.60;99.90;;;;;;5063220;28;20132;-78
2021/12/25 05:08:52;;;;;;;3.38;0.80;;;-3.60;99.90;;;;;;5043562;28;20113;-78
2021/12/25 05:11:18;;;;;;;3.75;1.02;;;-3.60;99.90;;;;;;5043055;28;20133;-78
2021/12/25 05:13:46;;;;;;;2.05;0.60;;;-3.60;99.90;;;;;;5049688;28;20079;-78
2021/12/25 05:16:13;;;;;;;1.15;0.50;;;-3.70;99.90;;;;;;5034036;28;20145;-78
2021/12/25 05:18:38;;;;;;;2.33;0.55;;;-3.70;99.90;;;;;;5051207;28;20036;-78
2021/12/25 05:21:04;;;;;;;3.28;0.55;;;-3.70;99.90;;;;;;5061183;28;20037;-78
2021/12/25 05:23:30;;;;;;;3.47;0.60;;;-3.70;99.90;;;;;;5060748;28;20099;-78
2021/12/25 05:25:56;;;;;;;1.73;0.75;;;-3.70;99.90;;;;;;5058416;28;20665;-77
2021/12/25 05:28:26;;;;;;;5.38;0.60;;;-3.70;99.90;;;;;;5020451;28;20132;-78
2021/12/25 05:30:53;;;;;;;2.10;0.70;;;-3.70;99.90;;;;;;5050108;28;20063;-78
2021/12/25 05:33:20;;;;;;;2.05;0.50;;;-3.70;99.90;;;;;;5084907;28;20037;-78
2021/12/25 05:35:46;;;;;;;0.98;0.50;;;-3.80;99.90;;;;;;5048335;28;20033;-77
2021/12/25 05:38:14;;;;;;;2.83;0.70;;;-3.80;99.90;;;;;;5037907;28;20373;-78
2021/12/25 05:40:42;;;;;;;3.67;0.88;;;-3.80;99.90;;;;;;5050657;28;20069;-78
2021/12/25 05:43:09;;;;;;;1.05;0.50;;;-3.80;99.90;;;;;;5035590;28;20040;-78
2021/12/25 05:45:34;;;;;;;2.22;0.60;;;-3.80;99.90;;;;;;5069782;28;20411;-78
2021/12/25 05:48:00;;;;;;;1.63;0.68;;;-3.80;99.90;;;;;;5032458;28;20041;-78
2021/12/25 05:50:26;;;;;;;1.67;0.77;;;-3.80;99.90;;;;;;5049492;28;20131;-77
2021/12/25 05:52:55;;;;;;;1.95;0.60;;;-3.80;99.90;;;;;;5015714;28;20099;-77
2021/12/25 05:55:21;;;;;;;3.40;1.25;;;-3.90;99.90;;;;;;5083669;28;20124;-78
2021/12/25 05:57:47;;;;;;;1.17;0.43;;;-3.90;99.90;;;;;;5068028;28;20048;-78
2021/12/25 06:00:13;;;;;;;1.33;0.60;;;-3.90;99.90;;;;;;5050386;28;20040;-78
2021/12/25 06:02:39;;;;;;;3.25;0.75;;;-3.90;99.90;;;;;;5083302;28;20451;-78
2021/12/25 06:05:06;;;;;;;2.85;0.75;;;-3.90;99.90;;;;;;5019593;28;20043;-78
2021/12/25 06:07:33;;;;;;;2.35;0.70;;;-3.90;99.90;;;;;;5053240;28;20249;-78
2021/12/25 06:09:59;;;;;;;3.05;0.80;;;-4.00;99.90;;;;;;5081932;28;20049;-78
2021/12/25 06:12:26;;;;;;;1.23;0.60;;;-4.00;99.90;;;;;;5067696;28;20040;-78
2021/12/25 06:14:53;;;;;;;1.58;0.70;;;-4.00;99.90;;;;;;5023445;28;20508;-78
2021/12/25 06:17:20;;;;;;;2.33;0.63;;;-4.00;99.90;;;;;;5015738;28;20067;-78
2021/12/25 06:19:46;;;;;;;1.08;0.57;;;-4.00;99.90;;;;;;5051684;28;20037;-77
2021/12/25 06:22:11;;;;;;;2.72;0.80;;;-4.00;99.90;;;;;;5064569;28;20036;-77
2021/12/25 06:24:40;;;;;;;2.08;0.70;;;-4.00;99.90;;;;;;5085115;28;20542;-78
2021/12/25 06:27:06;;;;;;;1.77;0.88;;;-4.10;99.90;;;;;;5018785;28;20677;-78
2021/12/25 06:29:32;;;;;;;1.27;0.90;;;-4.10;99.90;;;;;;5065489;28;20036;-78
2021/12/25 06:31:58;;;;;;;4.10;1.00;;;-4.10;99.90;;;;;;5050720;28;20044;-77
2021/12/25 06:34:24;;;;;;;3.05;0.80;;;-4.20;99.90;;;;;;5053430;28;20050;-78
2021/12/25 06:36:50;;;;;;;2.75;0.85;;;-4.20;99.90;;;;;;5047366;28;20037;-78
2021/12/25 06:39:16;;;;;;;1.83;0.60;;;-4.20;99.90;;;;;;5052388;28;20091;-78
2021/12/25 06:41:43;;;;;;;2.38;0.70;;;-4.30;99.90;;;;;;5084364;28;20376;-78
2021/12/25 06:44:09;;;;;;;1.67;0.65;;;-4.30;99.90;;;;;;5045683;28;20036;-78
2021/12/25 06:46:35;;;;;;;2.90;0.70;;;-4.20;99.90;;;;;;5052687;28;20036;-78
2021/12/25 06:49:01;;;;;;;2.25;1.67;;;-4.30;99.90;;;;;;5048933;28;20094;-78
2021/12/25 06:51:26;;;;;;;1.45;0.80;;;-4.10;99.90;;;;;;5030728;28;20389;-78
2021/12/25 06:53:52;;;;;;;2.80;0.77;;;-4.30;99.90;;;;;;5051158;28;20048;-78
2021/12/25 06:56:18;;;;;;;3.50;1.00;;;-4.30;99.90;;;;;;5082637;28;20055;-78
2021/12/25 06:58:44;;;;;;;2.47;0.77;;;-4.30;99.90;;;;;;5047455;28;20114;-78
2021/12/25 07:01:10;;;;;;;3.17;0.75;;;-4.30;99.90;;;;;;5034647;28;20033;-78
2021/12/25 07:03:36;;;;;;;2.03;0.60;;;-4.00;99.90;;;;;;5027542;28;20037;-78
2021/12/25 07:06:02;;;;;;;1.58;0.70;;;-4.40;99.90;;;;;;5065517;28;20082;-78
2021/12/25 07:08:27;;;;;;;5.80;1.08;;;-4.30;99.90;;;;;;5044458;28;20044;-78
2021/12/25 07:10:53;;;;;;;2.53;0.77;;;-4.40;99.90;;;;;;5062174;28;20035;-77
2021/12/25 07:13:20;;;;;;;2.00;0.80;;;-4.40;99.90;;;;;;5044176;28;20044;-75
2021/12/25 07:15:47;;;;;;;3.45;0.70;;;-4.40;99.90;;;;;;5045246;28;20037;-76
2021/12/25 07:18:13;;;;;;;3.75;0.80;;;-4.40;99.90;;;;;;5080830;28;20450;-76
2021/12/25 07:20:39;;;;;;;2.65;0.60;;;-4.40;99.90;;;;;;5045402;28;20507;-73
2021/12/25 07:23:05;;;;;;;3.08;0.75;;;-4.40;99.90;;;;;;5063965;28;20052;-73
2021/12/25 07:25:31;;;;;;;1.63;1.35;;;-4.40;99.90;;;;;;5065048;28;20040;-75
2021/12/25 07:27:57;;;;;;;3.38;0.85;;;-4.40;99.90;;;;;;5047028;28;20383;-74
2021/12/25 07:30:23;;;;;;;2.75;0.90;;;-4.40;99.90;;;;;;5010183;28;20474;-74
2021/12/25 07:32:49;;;;;;;2.25;0.70;;;-4.40;99.90;;;;;;5081415;28;20032;-74
2021/12/25 07:35:14;;;;;;;3.63;0.55;;;-4.40;99.90;;;;;;5028471;28;20492;-74
2021/12/25 07:37:40;;;;;;;1.30;0.60;;;-4.50;99.90;;;;;;5028384;28;20487;-75
2021/12/25 07:40:09;;;;;;;2.10;0.60;;;-4.50;99.90;;;;;;5057456;28;20060;-75
2021/12/25 07:42:35;;;;;;;3.80;0.70;;;-4.50;99.90;;;;;;5027893;28;20414;-74
2021/12/25 07:45:06;;;;;;;2.63;0.60;;;-4.50;99.90;;;;;;5077199;28;20052;-74
2021/12/25 07:47:37;;;;;;;6.22;0.82;;;-4.50;99.90;;;;;;5046295;28;20048;-74
2021/12/25 07:50:03;;;;;;;1.98;0.70;;;-4.50;99.90;;;;;;5064168;28;20040;-73
2021/12/25 07:52:30;;;;;;;1.50;0.80;;;-4.50;99.90;;;;;;5046349;28;20056;-73
2021/12/25 07:54:55;;;;;;;5.03;0.50;;;-4.50;99.90;;;;;;5044111;28;20044;-73
2021/12/25 07:57:21;;;;;;;4.07;0.90;;;-4.50;99.90;;;;;;5079438;28;20043;-73
2021/12/25 07:59:47;;;;;;;2.17;0.70;;;-4.50;99.90;;;;;;5058639;28;20040;-74
2021/12/25 08:02:13;;;;;;;1.55;0.60;;;-4.50;99.90;;;;;;5063841;28;20037;-74
2021/12/25 08:04:38;;;;;;;2.03;0.80;;;-4.50;99.90;;;;;;5012613;28;20120;-74
2021/12/25 08:07:04;;;;;;;1.87;0.70;;;-4.60;99.90;;;;;;5047820;28;20040;-74
2021/12/25 08:09:31;;;;;;;2.80;0.80;;;-4.60;99.90;;;;;;5060973;28;20063;-74
2021/12/25 08:12:01;;;;;;;4.05;0.85;;;-4.50;99.90;;;;;;5047026;28;20043;-76
2021/12/25 08:14:27;;;;;;;2.95;0.98;;;-4.50;99.90;;;;;;5026231;28;20119;-73
2021/12/25 08:16:55;;;;;;;2.65;1.00;;;-4.60;99.90;;;;;;5042799;28;20039;-73
2021/12/25 08:19:21;;;;;;;1.83;0.85;;;-4.50;99.90;;;;;;5027071;28;20032;-76
2021/12/25 08:21:48;;;;;;;2.72;0.80;;;-3.40;99.90;;;;;;5045382;28;20079;-76
2021/12/25 08:24:14;;;;;;;3.38;0.80;;;-4.50;99.90;;;;;;5041275;28;20040;-77
2021/12/25 08:26:41;;;;;;;1.70;0.73;;;-4.50;99.90;;;;;;5027267;28;20052;-77
2021/12/25 08:29:06;;;;;;;2.27;0.90;;;-4.50;99.90;;;;;;5032632;28;20093;-77
2021/12/25 08:31:32;;;;;;;2.55;0.80;;;-4.50;99.90;;;;;;5064411;28;20435;-76
2021/12/25 08:33:58;;;;;;;2.70;0.98;;;-4.50;99.90;;;;;;5044116;28;20090;-77
2021/12/25 08:36:23;;;;;;;2.28;0.70;;;-4.40;99.90;;;;;;5014976;28;20105;-77
2021/12/25 08:38:49;;;;;;;1.95;0.60;;;-4.40;99.90;;;;;;5034284;28;20033;-77
2021/12/25 08:41:15;;;;;;;1.52;0.70;;;-4.40;99.90;;;;;;5068572;28;20129;-77
2021/12/25 08:43:47;;;;;;;2.08;0.93;;;-4.40;99.90;;;;;;5031416;28;20115;-77
2021/12/25 08:46:24;;;;;;;2.83;0.95;;;-4.30;99.90;;;;;;5033369;28;20214;-77
2021/12/25 08:48:52;;;;;;;1.15;0.57;;;-4.30;99.90;;;;;;5048642;28;20032;-77
2021/12/25 08:51:17;;;;;;;3.22;1.05;;;-4.20;99.90;;;;;;5032972;28;20588;-77
2021/12/25 08:53:43;;;;;;;3.08;1.17;;;-4.20;99.90;;;;;;5031272;28;20048;-76
2021/12/25 08:56:09;;;;;;;5.70;1.25;;;-4.10;99.90;;;;;;5084534;28;20078;-77
2021/12/25 08:58:35;;;;;;;4.10;1.20;;;-2.80;99.90;;;;;;5065502;28;20552;-77
2021/12/25 09:01:04;;;;;;;1.58;0.65;;;-3.90;99.90;;;;;;5054196;28;20028;-76
2021/12/25 09:03:30;;;;;;;1.48;0.82;;;-3.90;99.90;;;;;;5066950;28;20711;-77
2021/12/25 09:05:57;;;;;;;4.32;0.60;;;-3.80;99.90;;;;;;5044945;28;20047;-75
2021/12/25 09:08:24;;;;;;;4.97;0.88;;;-3.80;99.90;;;;;;5049006;28;20036;-78
2021/12/25 09:10:51;;;;;;;3.00;0.90;;;-3.70;99.90;;;;;;5047991;28;20036;-78
2021/12/25 09:13:17;;;;;;;3.58;0.75;;;-3.70;99.90;;;;;;5046085;28;20040;-78
2021/12/25 09:15:43;;;;;;;0.88;0.52;;;-3.70;99.90;;;;;;5054528;28;20512;-78
2021/12/25 09:18:09;;;;;;;4.15;1.00;;;-3.60;99.90;;;;;;5050676;28;20061;-78
2021/12/25 09:20:35;;;;;;;2.65;0.73;;;-3.60;99.90;;;;;;5048759;28;20044;-78
2021/12/25 09:23:01;;;;;;;5.18;0.95;;;-3.50;99.90;;;;;;5016726;28;20123;-78
2021/12/25 09:25:27;;;;;;;3.92;0.95;;;-3.50;99.90;;;;;;5031609;28;20116;-78
2021/12/25 09:27:53;;;;;;;5.32;1.15;;;-3.50;99.90;;;;;;5040591;28;20033;-78
2021/12/25 09:30:21;;;;;;;2.55;0.60;;;-3.40;99.90;;;;;;5079403;28;20123;-75
2021/12/25 09:32:47;;;;;;;4.50;1.45;;;-3.40;99.90;;;;;;5082538;28;20044;-77
2021/12/25 09:35:13;;;;;;;1.60;0.70;;;-3.40;99.90;;;;;;5066616;28;20033;-76
2021/12/25 09:37:39;;;;;;;4.00;0.88;;;-3.30;99.90;;;;;;5046890;28;20060;-76
2021/12/25 09:40:08;;;;;;;2.78;0.90;;;-3.30;99.90;;;;;;5038065;28;20040;-76
2021/12/25 09:42:34;;;;;;;3.90;1.60;;;-3.20;99.90;;;;;;5053650;28;20121;-75
2021/12/25 09:45:00;;;;;;;2.00;1.10;;;-3.20;99.90;;;;;;5028392;28;20111;-75
2021/12/25 09:47:26;;;;;;;2.63;1.00;;;-3.20;99.90;;;;;;5056250;28;20167;-75
2021/12/25 09:49:53;;;;;;;2.80;1.60;;;-3.20;99.90;;;;;;5051397;28;20262;-75
2021/12/25 09:52:20;;;;;;;3.83;0.88;;;-2.50;99.90;;;;;;5082259;28;20066;-76
2021/12/25 09:54:46;;;;;;;3.42;0.93;;;-3.10;99.90;;;;;;5064614;28;20134;-76
2021/12/25 09:57:14;;;;;;;2.00;1.27;;;-2.60;99.90;;;;;;5034839;28;20514;-75
2021/12/25 09:59:40;;;;;;;7.10;1.85;;;-3.10;99.90;;;;;;5059291;28;20032;-76
2021/12/25 10:02:13;;;;;;;2.38;0.70;;;-3.00;99.90;;;;;;5033646;28;20046;-76
2021/12/25 10:04:50;;;;;;;2.75;0.82;;;-3.00;99.90;;;;;;5066715;28;20196;-76
2021/12/25 10:07:24;;;;;;;2.55;0.85;;;-3.00;99.90;;;;;;5062501;28;20260;-76
2021/12/25 10:09:55;;;;;;;4.38;0.98;;;-3.00;99.90;;;;;;5049083;28;20458;-76
2021/12/25 10:12:25;;;;;;;4.10;1.00;;;-2.90;99.90;;;;;;5044748;28;20036;-76
2021/12/25 10:14:53;;;;;;;4.07;0.90;;;-2.90;99.90;;;;;;5040974;28;20047;-76
2021/12/25 10:17:26;;;;;;;1.33;0.90;;;-2.80;99.90;;;;;;5067237;28;20072;-76
2021/12/25 10:20:03;;;;;;;3.45;1.00;;;-2.80;99.90;;;;;;5049335;28;20048;-76
2021/12/25 10:22:30;;;;;;;1.77;0.80;;;-2.80;99.90;;;;;;5084553;28;20126;-76
2021/12/25 10:25:10;;;;;;;4.63;0.70;;;-2.80;99.90;;;;;;5048835;28;20384;-76
2021/12/25 10:27:45;;;;;;;1.35;0.60;;;-2.70;99.90;;;;;;5052096;28;20523;-76
2021/12/25 10:30:11;;;;;;;2.95;0.65;;;-2.70;99.90;;;;;;5047358;28;20047;-76
2021/12/25 10:32:38;;;;;;;3.33;0.73;;;-2.70;99.90;;;;;;5047469;28;20032;-75
2021/12/25 10:35:22;;;;;;;5.20;0.60;;;-2.60;99.90;;;;;;5080310;28;20132;-76
2021/12/25 10:37:50;;;;;;;1.17;0.68;;;-2.60;99.90;;;;;;5031677;28;20072;-76
2021/12/25 10:40:26;;;;;;;2.60;1.05;;;-2.60;99.90;;;;;;5080971;28;20094;-76
2021/12/25 10:42:58;;;;;;;4.30;0.90;;;-2.60;99.90;;;;;;5082132;28;20609;-76
2021/12/25 10:45:26;;;;;;;7.28;0.82;;;-2.50;99.90;;;;;;5083410;28;20072;-76
2021/12/25 10:48:05;;;;;;;2.67;1.00;;;-1.80;99.90;;;;;;5082073;28;20117;-74
2021/12/25 10:50:39;;;;;;;2.42;0.70;;;-2.50;99.90;;;;;;5049914;28;20412;-75
2021/12/25 10:53:26;;;;;;;3.20;0.80;;;-2.40;99.90;;;;;;5048642;28;20500;-77
2021/12/25 10:55:53;;;;;;;2.47;0.70;;;-2.30;99.90;;;;;;5047117;28;20115;-78
2021/12/25 10:58:23;;;;;;;7.93;1.23;;;-2.30;99.90;;;;;;5015266;28;20484;-78
2021/12/25 11:00:55;;;;;;;1.40;0.70;;;-2.30;99.90;;;;;;5050090;28;20105;-77
2021/12/25 11:03:33;;;;;;;3.58;0.80;;;-1.90;99.90;;;;;;5049066;28;20040;-76
2021/12/25 11:06:13;;;;;;;2.50;0.65;;;-2.20;99.90;;;;;;5045163;28;20055;-76
2021/12/25 11:08:40;;;;;;;5.30;0.82;;;-2.10;99.90;;;;;;5051000;28;21809;-78
2021/12/25 11:11:13;;;;;;;3.30;0.80;;;-2.10;99.90;;;;;;5042814;28;20487;-78
2021/12/25 11:14:07;;;;;;;3.72;1.10;;;-2.00;99.90;;;;;;5037525;28;20664;-77
2021/12/25 11:16:38;;;;;;;4.10;1.10;;;-2.00;99.90;;;;;;5043949;28;20052;-78
2021/12/25 11:19:16;;;;;;;6.22;1.15;;;-1.90;99.90;;;;;;5065565;28;20043;-78
2021/12/25 11:21:44;;;;;;;2.65;0.90;;;-1.90;99.90;;;;;;5047680;28;20093;-78
2021/12/25 11:24:22;;;;;;;7.15;3.00;;;-1.80;99.90;;;;;;5049830;28;20156;-78
2021/12/25 11:26:53;;;;;;;5.55;2.30;;;-1.80;99.90;;;;;;5082676;28;20492;-78
2021/12/25 11:29:23;;;;;;;2.88;1.48;;;-1.70;99.90;;;;;;5052563;28;20032;-77
2021/12/25 11:31:51;;;;;;;5.65;1.40;;;-1.60;99.90;;;;;;5050578;28;20274;-78
2021/12/25 11:34:18;;;;;;;6.13;1.02;;;-1.60;99.90;;;;;;5048260;28;20492;-77
2021/12/25 11:36:48;;;;;;;4.28;0.77;;;-1.40;99.90;;;;;;5078639;28;20036;-78
2021/12/25 11:39:15;;;;;;;3.13;0.98;;;-1.40;99.90;;;;;;5029745;28;20025;-80
2021/12/25 11:41:42;;;;;;;2.55;0.80;;;-1.20;99.90;;;;;;5086559;28;20566;-78
2021/12/25 11:44:45;;;;;;;1.88;1.00;;;-0.90;99.90;;;;;;5016880;28;20169;-78
2021/12/25 11:47:30;;;;;;;5.88;0.90;;;-0.80;99.90;;;;;;5024837;28;20037;-79
2021/12/25 11:49:59;;;;;;;1.10;0.82;;;0.00;99.90;;;;;;5082000;28;20036;-79
2021/12/25 11:52:30;;;;;;;2.80;1.35;;;-0.60;99.90;;;;;;5065037;28;20072;-77
2021/12/25 11:58:52;;;;;;;3.63;1.00;;;-0.10;99.90;;;;;;5084167;28;20047;-79
2021/12/25 12:01:21;;;;;;;2.47;0.60;;;0.60;99.90;;;;;;5049058;28;20773;-79
2021/12/25 12:04:13;;;;;;;4.15;0.80;;;0.90;99.90;;;;;;5053527;28;20032;-79
2021/12/25 12:06:47;;;;;;;3.28;0.90;;;1.30;99.90;;;;;;5041712;28;20063;-79
2021/12/25 12:09:19;;;;;;;3.22;0.90;;;1.50;99.90;;;;;;5044176;28;20131;-79
2021/12/25 12:11:48;;;;;;;2.78;0.77;;;1.70;99.90;;;;;;5063939;28;20044;-79
2021/12/25 12:14:27;;;;;;;3.33;1.23;;;1.60;99.90;;;;;;5031500;28;20034;-79
2021/12/25 12:16:59;;;;;;;3.80;1.00;;;1.60;99.90;;;;;;5029182;28;20082;-78
2021/12/25 12:19:35;;;;;;;3.17;0.90;;;1.40;99.90;;;;;;5030048;28;20036;-76
2021/12/25 12:27:57;;;;;;;3.67;1.25;;;0.50;99.90;;;;;;5017879;28;20045;-77
2021/12/25 12:30:32;;;;;;;2.17;0.70;;;0.20;99.90;;;;;;5035923;28;20075;-78
2021/12/25 12:33:03;;;;;;;1.02;0.60;;;0.00;99.90;;;;;;5036207;28;20071;-77
2021/12/25 12:35:38;;;;;;;1.60;0.80;;;-0.20;99.90;;;;;;5061822;28;20052;-78
2021/12/25 12:38:46;;;;;;;4.22;1.38;;;-0.20;99.90;;;;;;5032660;28;20040;-78
2021/12/25 12:41:19;;;;;;;2.90;0.90;;;-0.10;99.90;;;;;;5047052;28;20193;-78
2021/12/25 12:44:09;;;;;;;2.92;0.80;;;-0.10;99.90;;;;;;5070862;28;20083;-78
2021/12/25 12:46:51;;;;;;;2.08;0.70;;;-0.10;99.90;;;;;;5017954;28;20557;-77
2021/12/25 12:49:22;;;;;;;2.60;0.73;;;-0.30;99.90;;;;;;5047748;28;20053;-78
2021/12/25 12:52:16;;;;;;;5.50;1.40;;;-0.30;99.90;;;;;;5080221;28;20036;-78
2021/12/25 12:54:43;;;;;;;4.53;0.80;;;-0.30;99.90;;;;;;5030266;28;20563;-77
2021/12/25 12:57:15;;;;;;;2.30;0.80;;;-0.30;99.90;;;;;;5047616;28;20048;-78
2021/12/25 12:59:44;;;;;;;;;;;-0.30;99.90;;;;;;5046227;28;20033;-77
2021/12/25 13:02:11;;;;;;;7.45;2.17;;;-0.40;99.90;;;;;;5078336;28;19962;-78
2021/12/25 13:04:59;;;;;;;2.50;1.45;;;-0.50;99.90;;;;;;5034051;28;20068;-78
2021/12/25 13:07:28;;;;;;;6.40;1.00;;;0.30;99.90;;;;;;5025046;28;20041;-78
2021/12/25 13:10:01;;;;;;;2.95;1.10;;;-0.60;99.90;;;;;;5051582;28;20049;-78
2021/12/25 13:12:49;;;;;;;3.17;0.80;;;-0.60;99.90;;;;;;5051326;28;20041;-79
2021/12/25 13:15:18;;;;;;;3.55;0.70;;;-0.60;99.90;;;;;;5033123;28;20064;-78
2021/12/25 13:17:59;;;;;;;2.17;0.95;;;-0.60;99.90;;;;;;5044686;28;20037;-80
2021/12/25 13:20:54;;;;;;;7.40;0.98;;;-0.80;99.90;;;;;;5048535;28;20495;-79
2021/12/25 13:23:24;;;;;;;2.47;0.82;;;-0.90;99.90;;;;;;5036961;28;20560;-81
2021/12/25 13:25:52;;;;;;;2.55;1.02;;;0.10;99.90;;;;;;5043333;28;20097;-79
2021/12/25 13:28:19;;;;;;;4.65;0.98;;;-0.90;99.90;;;;;;5075347;28;20531;-79
2021/12/25 13:30:49;;;;;;;2.90;0.77;;;-1.20;99.90;;;;;;5060610;28;20065;-79
2021/12/25 13:33:19;;;;;;;2.10;0.80;;;-1.20;99.90;;;;;;5043863;28;20044;-79
2021/12/25 13:35:45;;;;;;;1.52;0.70;;;-1.30;99.90;;;;;;5047659;28;20048;-79
2021/12/25 13:38:12;;;;;;;2.35;0.80;;;-1.00;99.90;;;;;;5045938;28;20400;-79
2021/12/25 13:40:44;;;;;;;2.47;1.00;;;-1.40;99.90;;;;;;5047946;28;20036;-78
2021/12/25 13:43:11;;;;;;;2.83;0.95;;;-1.40;99.90;;;;;;5033857;28;20064;-74
2021/12/25 13:45:37;;;;;;;4.65;1.48;;;-1.40;99.90;;;;;;5031541;28;20477;-81
2021/12/25 13:48:05;;;;;;;2.08;0.90;;;-1.50;99.90;;;;;;5047955;28;20187;-78
2021/12/25 13:50:32;;;;;;;5.97;1.40;;;-1.50;99.90;;;;;;5044131;28;20041;-78
2021/12/25 13:52:59;;;;;;;1.75;0.98;;;-1.50;99.90;;;;;;5019178;28;20053;-77
2021/12/25 13:55:33;;;;;;;2.88;0.80;;;-1.50;99.90;;;;;;5039179;28;20049;-80
2021/12/25 13:58:06;;;;;;;1.63;0.93;;;-0.80;99.90;;;;;;5026134;28;20079;-78
2021/12/25 14:00:33;;;;;;;4.90;0.93;;;-1.40;99.90;;;;;;5013876;28;20041;-78
2021/12/25 14:03:03;;;;;;;1.73;0.80;;;-1.50;99.90;;;;;;5047414;28;20123;-78
2021/12/25 14:05:36;;;;;;;3.20;0.82;;;-1.50;99.90;;;;;;5017289;28;20052;-78
2021/12/25 14:08:02;;;;;;;5.93;1.23;;;-1.60;99.90;;;;;;5034247;28;20487;-78
2021/12/25 14:10:30;;;;;;;2.83;0.93;;;-1.60;99.90;;;;;;5028954;28;20044;-77
2021/12/25 14:12:59;;;;;;;6.22;1.45;;;-1.50;99.90;;;;;;5056085;28;20072;-77
2021/12/25 14:15:29;;;;;;;7.93;3.08;;;-0.60;99.90;;;;;;5047564;28;20029;-77
2021/12/25 14:17:55;;;;;;;10.73;4.63;;;-1.30;99.90;;;;;;5066996;28;20106;-77
2021/12/25 14:20:30;;;;;;;4.60;1.60;;;-1.40;99.90;;;;;;5015654;28;20033;-78
2021/12/25 14:23:01;;;;;;;1.73;0.90;;;-0.80;99.90;;;;;;5072450;28;20041;-78
2021/12/25 14:25:32;;;;;;;5.20;1.20;;;-1.10;99.90;;;;;;5066751;28;20136;-78
2021/12/25 14:28:00;;;;;;;2.45;1.30;;;-0.80;99.90;;;;;;5069394;28;20049;-78